sensor_id;sensor_type;location;lat;lon;timestamp;temperature;humidity
38854;DHT22;24606;51.992;4.198;2023-03-21T00:03:14;12.60;99.90
38854;DHT22;24606;51.992;4.198;2023-03-21T00:08:16;12.70;99.90
38854;DHT22;24606;51.992;4.198;2023-03-21T00:13:18;13.60;99.90
38854;DHT22;24606;51.992;4.198;2023-03-21T00:18:22;12.30;99.90
38854;DHT22;24606;51.992;4.198;2023-03-21T00:23:25;12.00;99.90
38854;DHT22;24606;51.992;4.198;2023-03-21T00:28:28;13.40;99.90
38854;DHT22;24606;51.992;4.198;2023-03-21T00:33:31;12.20;99.90
38854;DHT22;24606;51.992;4.198;2023-03-21T00:38:34;12.40;99.90
38854;DHT22;24606;51.992;4.198;2023-03-21T00:43:36;13.40;99.90
38854;DHT22;24606;51.992;4.198;2023-03-21T00:48:41;12.90;99.90
38854;DHT22;24606;51.992;4.198;2023-03-21T00:53:42;13.20;99.90
38854;DHT22;24606;51.992;4.198;2023-03-21T00:58:44;12.60;99.90
38854;DHT22;24606;51.992;4.198;2023-03-21T01:03:47;12.90;99.90
38854;DHT22;24606;51.992;4.198;2023-03-21T01:09:03;12.30;99.90
38854;DHT22;24606;51.992;4.198;2023-03-21T01:14:05;12.40;99.90
38854;DHT22;24606;51.992;4.198;2023-03-21T01:19:10;12.60;99.90
38854;DHT22;24606;51.992;4.198;2023-03-21T01:24:12;12.90;99.90
38854;DHT22;24606;51.992;4.198;2023-03-21T01:29:14;14.70;99.90
38854;DHT22;24606;51.992;4.198;2023-03-21T01:34:17;14.30;99.90
38854;DHT22;24606;51.992;4.198;2023-03-21T01:39:19;13.80;99.90
38854;DHT22;24606;51.992;4.198;2023-03-21T01:44:21;14.60;99.90
38854;DHT22;24606;51.992;4.198;2023-03-21T01:49:26;13.40;99.90
38854;DHT22;24606;51.992;4.198;2023-03-21T01:54:36;14.30;99.90
38854;DHT22;24606;51.992;4.198;2023-03-21T01:59:41;14.60;99.90
38854;DHT22;24606;51.992;4.198;2023-03-21T02:04:46;14.70;99.90
38854;DHT22;24606;51.992;4.198;2023-03-21T02:09:51;15.10;99.90
38854;DHT22;24606;51.992;4.198;2023-03-21T02:14:54;15.40;99.90
38854;DHT22;24606;51.992;4.198;2023-03-21T02:20:20;15.40;99.90
38854;DHT22;24606;51.992;4.198;2023-03-21T02:31:24;17.20;94.30
38854;DHT22;24606;51.992;4.198;2023-03-21T02:36:45;17.00;95.10
38854;DHT22;24606;51.992;4.198;2023-03-21T02:41:53;16.90;95.70
38854;DHT22;24606;51.992;4.198;2023-03-21T02:47:02;16.50;96.30
38854;DHT22;24606;51.992;4.198;2023-03-21T02:52:08;16.20;98.80
38854;DHT22;24606;51.992;4.198;2023-03-21T02:57:13;17.00;95.00
38854;DHT22;24606;51.992;4.198;2023-03-21T03:02:19;16.90;93.90
38854;DHT22;24606;51.992;4.198;2023-03-21T03:07:36;16.80;95.60
38854;DHT22;24606;51.992;4.198;2023-03-21T03:12:47;17.20;93.40
38854;DHT22;24606;51.992;4.198;2023-03-21T03:17:59;16.40;91.50
38854;DHT22;24606;51.992;4.198;2023-03-21T03:23:12;17.10;94.50
38854;DHT22;24606;51.992;4.198;2023-03-21T03:28:20;16.50;97.00
38854;DHT22;24606;51.992;4.198;2023-03-21T03:33:24;16.50;96.00
38854;DHT22;24606;51.992;4.198;2023-03-21T03:38:28;16.40;95.20
38854;DHT22;24606;51.992;4.198;2023-03-21T03:43:36;16.70;95.70
38854;DHT22;24606;51.992;4.198;2023-03-21T03:48:43;17.80;90.60
38854;DHT22;24606;51.992;4.198;2023-03-21T03:53:52;17.90;90.00
38854;DHT22;24606;51.992;4.198;2023-03-21T03:58:56;18.00;88.20
38854;DHT22;24606;51.992;4.198;2023-03-21T04:03:58;17.80;90.00
38854;DHT22;24606;51.992;4.198;2023-03-21T04:09:02;17.60;90.30
38854;DHT22;24606;51.992;4.198;2023-03-21T04:14:05;17.40;91.00
38854;DHT22;24606;51.992;4.198;2023-03-21T04:19:07;17.40;91.60
38854;DHT22;24606;51.992;4.198;2023-03-21T04:24:11;17.80;90.40
38854;DHT22;24606;51.992;4.198;2023-03-21T04:29:13;18.10;87.40
38854;DHT22;24606;51.992;4.198;2023-03-21T04:34:15;18.20;85.70
38854;DHT22;24606;51.992;4.198;2023-03-21T04:39:19;18.20;85.20
38854;DHT22;24606;51.992;4.198;2023-03-21T04:44:20;18.30;84.60
38854;DHT22;24606;51.992;4.198;2023-03-21T04:49:22;18.20;84.50
38854;DHT22;24606;51.992;4.198;2023-03-21T04:54:25;18.30;84.20
38854;DHT22;24606;51.992;4.198;2023-03-21T04:59:27;18.30;83.60
38854;DHT22;24606;51.992;4.198;2023-03-21T05:04:29;18.30;83.80
38854;DHT22;24606;51.992;4.198;2023-03-21T05:09:33;18.30;83.80
38854;DHT22;24606;51.992;4.198;2023-03-21T05:14:35;18.40;82.80
38854;DHT22;24606;51.992;4.198;2023-03-21T05:19:36;18.60;82.20
38854;DHT22;24606;51.992;4.198;2023-03-21T05:24:41;18.40;83.60
38854;DHT22;24606;51.992;4.198;2023-03-21T05:29:43;17.30;82.00
38854;DHT22;24606;51.992;4.198;2023-03-21T05:34:45;16.70;96.10
38854;DHT22;24606;51.992;4.198;2023-03-21T05:39:48;17.50;92.50
38854;DHT22;24606;51.992;4.198;2023-03-21T05:44:50;17.20;92.80
38854;DHT22;24606;51.992;4.198;2023-03-21T05:49:52;17.50;91.10
38854;DHT22;24606;51.992;4.198;2023-03-21T05:54:56;17.80;91.90
38854;DHT22;24606;51.992;4.198;2023-03-21T05:59:57;17.80;91.10
38854;DHT22;24606;51.992;4.198;2023-03-21T06:04:59;18.00;91.30
38854;DHT22;24606;51.992;4.198;2023-03-21T06:10:03;18.50;88.40
38854;DHT22;24606;51.992;4.198;2023-03-21T06:15:06;17.80;90.10
38854;DHT22;24606;51.992;4.198;2023-03-21T06:20:10;18.80;85.30
38854;DHT22;24606;51.992;4.198;2023-03-21T06:25:14;19.00;83.30
38854;DHT22;24606;51.992;4.198;2023-03-21T06:30:16;18.50;88.40
38854;DHT22;24606;51.992;4.198;2023-03-21T06:35:18;19.40;80.40
38854;DHT22;24606;51.992;4.198;2023-03-21T06:40:22;19.60;79.00
38854;DHT22;24606;51.992;4.198;2023-03-21T06:45:23;19.50;80.20
38854;DHT22;24606;51.992;4.198;2023-03-21T06:50:26;19.60;79.00
38854;DHT22;24606;51.992;4.198;2023-03-21T06:55:29;19.70;78.70
38854;DHT22;24606;51.992;4.198;2023-03-21T07:00:31;19.30;81.60
38854;DHT22;24606;51.992;4.198;2023-03-21T07:15:21;19.80;77.50
38854;DHT22;24606;51.992;4.198;2023-03-21T07:20:22;19.80;78.00
38854;DHT22;24606;51.992;4.198;2023-03-21T07:25:26;19.70;78.00
38854;DHT22;24606;51.992;4.198;2023-03-21T07:30:29;19.80;77.20
38854;DHT22;24606;51.992;4.198;2023-03-21T07:35:31;19.80;77.30
38854;DHT22;24606;51.992;4.198;2023-03-21T07:40:33;19.80;77.40
38854;DHT22;24606;51.992;4.198;2023-03-21T07:45:37;19.80;77.10
38854;DHT22;24606;51.992;4.198;2023-03-21T07:50:39;19.70;77.60
38854;DHT22;24606;51.992;4.198;2023-03-21T07:55:41;19.60;77.60
38854;DHT22;24606;51.992;4.198;2023-03-21T08:00:44;19.60;77.40
38854;DHT22;24606;51.992;4.198;2023-03-21T08:05:46;19.50;78.90
38854;DHT22;24606;51.992;4.198;2023-03-21T08:10:48;19.50;78.70
38854;DHT22;24606;51.992;4.198;2023-03-21T08:15:51;19.50;78.50
38854;DHT22;24606;51.992;4.198;2023-03-21T08:20:54;19.50;78.70
38854;DHT22;24606;51.992;4.198;2023-03-21T08:25:56;19.50;77.90
38854;DHT22;24606;51.992;4.198;2023-03-21T08:30:59;19.50;77.90
38854;DHT22;24606;51.992;4.198;2023-03-21T08:36:02;19.40;78.50
38854;DHT22;24606;51.992;4.198;2023-03-21T08:41:05;19.60;77.30
38854;DHT22;24606;51.992;4.198;2023-03-21T08:46:08;19.10;79.30
38854;DHT22;24606;51.992;4.198;2023-03-21T08:51:10;19.40;78.20
38854;DHT22;24606;51.992;4.198;2023-03-21T08:56:12;19.20;80.10
38854;DHT22;24606;51.992;4.198;2023-03-21T09:01:15;19.40;78.40
38854;DHT22;24606;51.992;4.198;2023-03-21T09:06:18;19.10;80.90
38854;DHT22;24606;51.992;4.198;2023-03-21T09:11:20;18.50;87.80
38854;DHT22;24606;51.992;4.198;2023-03-21T09:16:23;19.30;84.30
38854;DHT22;24606;51.992;4.198;2023-03-21T09:21:26;19.40;81.20
38854;DHT22;24606;51.992;4.198;2023-03-21T09:26:28;19.40;81.00
38854;DHT22;24606;51.992;4.198;2023-03-21T09:31:32;19.40;80.70
38854;DHT22;24606;51.992;4.198;2023-03-21T09:36:34;19.00;84.30
38854;DHT22;24606;51.992;4.198;2023-03-21T09:41:50;18.40;90.70
38854;DHT22;24606;51.992;4.198;2023-03-21T09:47:02;19.10;93.60
38854;DHT22;24606;51.992;4.198;2023-03-21T09:52:14;19.00;88.20
38854;DHT22;24606;51.992;4.198;2023-03-21T09:57:26;18.20;92.00
38854;DHT22;24606;51.992;4.198;2023-03-21T10:02:36;18.70;82.10
38854;DHT22;24606;51.992;4.198;2023-03-21T10:07:41;15.50;99.90
38854;DHT22;24606;51.992;4.198;2023-03-21T10:12:44;17.70;94.50
38854;DHT22;24606;51.992;4.198;2023-03-21T10:17:56;18.60;90.90
38854;DHT22;24606;51.992;4.198;2023-03-21T10:23:03;18.00;93.00
38854;DHT22;24606;51.992;4.198;2023-03-21T10:28:07;17.10;92.20
38854;DHT22;24606;51.992;4.198;2023-03-21T10:33:16;14.40;99.90
38854;DHT22;24606;51.992;4.198;2023-03-21T10:38:23;14.40;99.90
38854;DHT22;24606;51.992;4.198;2023-03-21T10:43:32;13.80;99.90
38854;DHT22;24606;51.992;4.198;2023-03-21T10:48:37;13.60;99.90
38854;DHT22;24606;51.992;4.198;2023-03-21T10:53:44;13.50;99.90
38854;DHT22;24606;51.992;4.198;2023-03-21T10:58:48;13.50;99.90
38854;DHT22;24606;51.992;4.198;2023-03-21T11:03:56;13.90;99.90
38854;DHT22;24606;51.992;4.198;2023-03-21T11:09:02;13.40;99.90
38854;DHT22;24606;51.992;4.198;2023-03-21T11:14:07;13.50;99.90
38854;DHT22;24606;51.992;4.198;2023-03-21T11:19:30;13.20;99.90
38854;DHT22;24606;51.992;4.198;2023-03-21T11:24:33;14.40;99.90
38854;DHT22;24606;51.992;4.198;2023-03-21T11:29:37;14.70;99.90
38854;DHT22;24606;51.992;4.198;2023-03-21T11:34:45;14.60;99.90
38854;DHT22;24606;51.992;4.198;2023-03-21T11:39:54;14.30;99.90
38854;DHT22;24606;51.992;4.198;2023-03-21T11:45:00;14.20;99.90
38854;DHT22;24606;51.992;4.198;2023-03-21T11:50:20;15.20;98.80
38854;DHT22;24606;51.992;4.198;2023-03-21T11:55:34;14.70;99.90
38854;DHT22;24606;51.992;4.198;2023-03-21T12:00:42;15.50;99.90
38854;DHT22;24606;51.992;4.198;2023-03-21T12:05:52;14.60;99.90
38854;DHT22;24606;51.992;4.198;2023-03-21T12:11:02;14.40;99.90
38854;DHT22;24606;51.992;4.198;2023-03-21T12:16:26;14.20;99.90
38854;DHT22;24606;51.992;4.198;2023-03-21T12:21:33;14.50;99.90
38854;DHT22;24606;51.992;4.198;2023-03-21T12:26:42;15.40;98.90
38854;DHT22;24606;51.992;4.198;2023-03-21T12:31:53;14.60;99.90
38854;DHT22;24606;51.992;4.198;2023-03-21T12:37:07;15.50;99.90
38854;DHT22;24606;51.992;4.198;2023-03-21T12:42:37;16.50;98.10
38854;DHT22;24606;51.992;4.198;2023-03-21T12:47:47;16.40;99.80
38854;DHT22;24606;51.992;4.198;2023-03-21T12:52:54;15.00;99.90
38854;DHT22;24606;51.992;4.198;2023-03-21T12:58:02;14.70;99.90
38854;DHT22;24606;51.992;4.198;2023-03-21T13:03:11;15.50;99.90
38854;DHT22;24606;51.992;4.198;2023-03-21T13:08:20;14.70;99.90
38854;DHT22;24606;51.992;4.198;2023-03-21T13:13:27;14.50;99.90
38854;DHT22;24606;51.992;4.198;2023-03-21T13:18:43;14.30;99.90
38854;DHT22;24606;51.992;4.198;2023-03-21T13:24:03;14.50;99.90
38854;DHT22;24606;51.992;4.198;2023-03-21T13:29:23;15.10;99.90
38854;DHT22;24606;51.992;4.198;2023-03-21T13:34:26;14.80;99.90
38854;DHT22;24606;51.992;4.198;2023-03-21T13:39:29;14.80;99.90
38854;DHT22;24606;51.992;4.198;2023-03-21T13:44:39;14.50;99.90
38854;DHT22;24606;51.992;4.198;2023-03-21T13:49:41;14.40;99.90
38854;DHT22;24606;51.992;4.198;2023-03-21T13:54:50;14.20;99.90
38854;DHT22;24606;51.992;4.198;2023-03-21T14:00:18;15.50;99.90
38854;DHT22;24606;51.992;4.198;2023-03-21T14:05:23;14.90;99.90
38854;DHT22;24606;51.992;4.198;2023-03-21T14:10:32;14.40;99.90
38854;DHT22;24606;51.992;4.198;2023-03-21T14:15:41;14.70;99.90
38854;DHT22;24606;51.992;4.198;2023-03-21T14:20:50;14.50;99.90
38854;DHT22;24606;51.992;4.198;2023-03-21T14:25:55;14.60;99.90
38854;DHT22;24606;51.992;4.198;2023-03-21T14:30:59;13.80;99.90
38854;DHT22;24606;51.992;4.198;2023-03-21T14:36:04;14.30;99.90
38854;DHT22;24606;51.992;4.198;2023-03-21T14:41:21;14.20;99.90
38854;DHT22;24606;51.992;4.198;2023-03-21T14:46:24;14.80;99.90
38854;DHT22;24606;51.992;4.198;2023-03-21T14:51:26;14.20;99.90
38854;DHT22;24606;51.992;4.198;2023-03-21T14:56:33;14.30;99.90
38854;DHT22;24606;51.992;4.198;2023-03-21T15:01:37;14.00;99.90
38854;DHT22;24606;51.992;4.198;2023-03-21T15:06:54;15.10;99.90
38854;DHT22;24606;51.992;4.198;2023-03-21T15:11:59;15.40;99.90
38854;DHT22;24606;51.992;4.198;2023-03-21T15:17:02;14.80;99.90
38854;DHT22;24606;51.992;4.198;2023-03-21T15:22:12;14.80;99.90
38854;DHT22;24606;51.992;4.198;2023-03-21T15:27:18;14.40;99.90
38854;DHT22;24606;51.992;4.198;2023-03-21T15:32:23;14.20;99.90
38854;DHT22;24606;51.992;4.198;2023-03-21T15:37:27;14.60;99.90
38854;DHT22;24606;51.992;4.198;2023-03-21T15:42:35;14.30;99.90
38854;DHT22;24606;51.992;4.198;2023-03-21T15:47:40;14.00;99.90
38854;DHT22;24606;51.992;4.198;2023-03-21T15:52:43;14.30;99.90
38854;DHT22;24606;51.992;4.198;2023-03-21T15:57:47;14.80;99.90
38854;DHT22;24606;51.992;4.198;2023-03-21T16:02:54;13.70;99.90
38854;DHT22;24606;51.992;4.198;2023-03-21T16:08:03;13.70;99.90
38854;DHT22;24606;51.992;4.198;2023-03-21T16:13:10;14.40;99.90
38854;DHT22;24606;51.992;4.198;2023-03-21T16:18:14;14.70;99.90
38854;DHT22;24606;51.992;4.198;2023-03-21T16:23:16;13.50;99.90
38854;DHT22;24606;51.992;4.198;2023-03-21T16:28:20;15.60;99.90
38854;DHT22;24606;51.992;4.198;2023-03-21T16:33:22;14.10;99.90
38854;DHT22;24606;51.992;4.198;2023-03-21T16:38:25;15.00;99.90
38854;DHT22;24606;51.992;4.198;2023-03-21T16:43:29;15.10;99.90
38854;DHT22;24606;51.992;4.198;2023-03-21T16:48:32;15.40;99.90
38854;DHT22;24606;51.992;4.198;2023-03-21T16:53:34;15.10;99.90
38854;DHT22;24606;51.992;4.198;2023-03-21T16:58:37;15.10;98.60
38854;DHT22;24606;51.992;4.198;2023-03-21T17:03:40;16.70;93.60
38854;DHT22;24606;51.992;4.198;2023-03-21T17:08:42;15.30;99.90
38854;DHT22;24606;51.992;4.198;2023-03-21T17:13:46;15.30;99.90
38854;DHT22;24606;51.992;4.198;2023-03-21T17:18:48;15.60;99.90
38854;DHT22;24606;51.992;4.198;2023-03-21T17:23:51;14.70;99.90
38854;DHT22;24606;51.992;4.198;2023-03-21T17:28:55;15.10;99.90
38854;DHT22;24606;51.992;4.198;2023-03-21T17:33:57;15.10;99.90
38854;DHT22;24606;51.992;4.198;2023-03-21T17:38:59;13.90;99.90
38854;DHT22;24606;51.992;4.198;2023-03-21T17:44:03;14.90;99.90
38854;DHT22;24606;51.992;4.198;2023-03-21T17:49:05;13.50;99.90
38854;DHT22;24606;51.992;4.198;2023-03-21T17:54:07;13.70;99.90
38854;DHT22;24606;51.992;4.198;2023-03-21T17:59:12;13.10;99.90
38854;DHT22;24606;51.992;4.198;2023-03-21T18:04:14;13.20;99.90
38854;DHT22;24606;51.992;4.198;2023-03-21T18:09:16;13.10;99.90
38854;DHT22;24606;51.992;4.198;2023-03-21T18:14:20;12.70;99.90
38854;DHT22;24606;51.992;4.198;2023-03-21T18:19:22;13.30;99.90
38854;DHT22;24606;51.992;4.198;2023-03-21T18:24:24;12.60;99.90
38854;DHT22;24606;51.992;4.198;2023-03-21T18:29:28;13.30;99.90
38854;DHT22;24606;51.992;4.198;2023-03-21T18:34:30;12.90;99.90
38854;DHT22;24606;51.992;4.198;2023-03-21T18:39:32;12.40;99.90
38854;DHT22;24606;51.992;4.198;2023-03-21T18:44:35;12.90;99.90
38854;DHT22;24606;51.992;4.198;2023-03-21T18:49:39;13.30;99.90
38854;DHT22;24606;51.992;4.198;2023-03-21T18:54:41;13.40;99.90
38854;DHT22;24606;51.992;4.198;2023-03-21T18:59:44;12.90;99.90
38854;DHT22;24606;51.992;4.198;2023-03-21T19:04:47;13.00;99.90
38854;DHT22;24606;51.992;4.198;2023-03-21T19:09:49;12.60;99.90
38854;DHT22;24606;51.992;4.198;2023-03-21T19:14:52;13.20;99.90
38854;DHT22;24606;51.992;4.198;2023-03-21T19:19:54;12.40;99.90
38854;DHT22;24606;51.992;4.198;2023-03-21T19:24:56;13.00;99.90
38854;DHT22;24606;51.992;4.198;2023-03-21T19:30:00;12.60;99.90
38854;DHT22;24606;51.992;4.198;2023-03-21T19:35:02;12.80;99.90
38854;DHT22;24606;51.992;4.198;2023-03-21T19:40:05;14.60;99.90
38854;DHT22;24606;51.992;4.198;2023-03-21T19:45:12;16.50;99.90
38854;DHT22;24606;51.992;4.198;2023-03-21T19:50:14;16.40;99.90
38854;DHT22;24606;51.992;4.198;2023-03-21T19:55:17;14.70;99.90
38854;DHT22;24606;51.992;4.198;2023-03-21T20:00:21;15.30;99.90
38854;DHT22;24606;51.992;4.198;2023-03-21T20:05:24;16.60;99.90
38854;DHT22;24606;51.992;4.198;2023-03-21T20:10:26;17.60;99.50
38854;DHT22;24606;51.992;4.198;2023-03-21T20:15:29;16.30;99.90
38854;DHT22;24606;51.992;4.198;2023-03-21T20:20:32;16.50;99.90
38854;DHT22;24606;51.992;4.198;2023-03-21T20:25:34;16.30;99.90
38854;DHT22;24606;51.992;4.198;2023-03-21T20:30:42;17.00;99.90
38854;DHT22;24606;51.992;4.198;2023-03-21T20:35:44;17.70;98.40
38854;DHT22;24606;51.992;4.198;2023-03-21T20:40:47;15.30;99.90
38854;DHT22;24606;51.992;4.198;2023-03-21T20:45:58;15.10;99.90
38854;DHT22;24606;51.992;4.198;2023-03-21T20:51:01;14.20;99.90
38854;DHT22;24606;51.992;4.198;2023-03-21T20:56:05;15.60;99.90
38854;DHT22;24606;51.992;4.198;2023-03-21T21:01:08;14.90;99.90
38854;DHT22;24606;51.992;4.198;2023-03-21T21:06:17;14.10;99.90
38854;DHT22;24606;51.992;4.198;2023-03-21T21:11:19;14.10;99.90
38854;DHT22;24606;51.992;4.198;2023-03-21T21:16:22;14.50;99.90
38854;DHT22;24606;51.992;4.198;2023-03-21T21:21:24;14.40;99.90
38854;DHT22;24606;51.992;4.198;2023-03-21T21:26:27;14.00;99.90
38854;DHT22;24606;51.992;4.198;2023-03-21T21:31:31;14.10;99.90
38854;DHT22;24606;51.992;4.198;2023-03-21T21:36:34;14.40;99.90
38854;DHT22;24606;51.992;4.198;2023-03-21T21:41:35;13.30;99.90
38854;DHT22;24606;51.992;4.198;2023-03-21T21:46:39;12.80;99.90
38854;DHT22;24606;51.992;4.198;2023-03-21T21:51:41;12.80;99.90
38854;DHT22;24606;51.992;4.198;2023-03-21T21:56:45;12.90;99.90
38854;DHT22;24606;51.992;4.198;2023-03-21T22:01:49;14.30;99.90
38854;DHT22;24606;51.992;4.198;2023-03-21T22:06:51;13.00;99.90
38854;DHT22;24606;51.992;4.198;2023-03-21T22:11:53;13.50;99.90
38854;DHT22;24606;51.992;4.198;2023-03-21T22:16:57;13.30;99.90
38854;DHT22;24606;51.992;4.198;2023-03-21T22:21:59;12.80;99.90
38854;DHT22;24606;51.992;4.198;2023-03-21T22:27:01;13.20;99.90
38854;DHT22;24606;51.992;4.198;2023-03-21T22:32:05;12.80;99.90
38854;DHT22;24606;51.992;4.198;2023-03-21T22:37:07;12.90;99.90
38854;DHT22;24606;51.992;4.198;2023-03-21T22:42:09;13.70;99.90
38854;DHT22;24606;51.992;4.198;2023-03-21T22:47:12;13.90;99.90
38854;DHT22;24606;51.992;4.198;2023-03-21T22:52:14;14.00;99.90
38854;DHT22;24606;51.992;4.198;2023-03-21T22:57:17;15.70;99.90
38854;DHT22;24606;51.992;4.198;2023-03-21T23:02:21;16.10;98.00
38854;DHT22;24606;51.992;4.198;2023-03-21T23:07:22;17.10;95.40
38854;DHT22;24606;51.992;4.198;2023-03-21T23:12:25;14.70;97.10
38854;DHT22;24606;51.992;4.198;2023-03-21T23:17:28;15.00;99.90
38854;DHT22;24606;51.992;4.198;2023-03-21T23:22:31;15.90;99.90
38854;DHT22;24606;51.992;4.198;2023-03-21T23:27:33;15.20;99.90
38854;DHT22;24606;51.992;4.198;2023-03-21T23:32:37;13.70;99.90
38854;DHT22;24606;51.992;4.198;2023-03-21T23:37:39;13.30;99.90
38854;DHT22;24606;51.992;4.198;2023-03-21T23:42:42;13.20;99.90
38854;DHT22;24606;51.992;4.198;2023-03-21T23:47:46;14.70;99.90
38854;DHT22;24606;51.992;4.198;2023-03-21T23:52:49;16.90;96.10
38854;DHT22;24606;51.992;4.198;2023-03-21T23:57:51;15.50;99.90
